sensor_id;sensor_type;location;lat;lon;timestamp;P1;durP1;ratioP1;P2;durP2;ratioP2
22871;SDS011;11603;44.910;8.630;2023-04-25T00:02:05;7.85;;;3.58;;
22871;SDS011;11603;44.910;8.630;2023-04-25T00:04:32;11.13;;;5.78;;
22871;SDS011;11603;44.910;8.630;2023-04-25T00:06:58;8.25;;;2.80;;
22871;SDS011;11603;44.910;8.630;2023-04-25T00:09:26;6.35;;;2.70;;
22871;SDS011;11603;44.910;8.630;2023-04-25T00:11:52;8.15;;;2.65;;
22871;SDS011;11603;44.910;8.630;2023-04-25T00:14:18;7.95;;;2.75;;
22871;SDS011;11603;44.910;8.630;2023-04-25T00:16:43;5.80;;;2.33;;
22871;SDS011;11603;44.910;8.630;2023-04-25T00:19:09;5.40;;;2.35;;
22871;SDS011;11603;44.910;8.630;2023-04-25T00:21:35;5.88;;;2.30;;
22871;SDS011;11603;44.910;8.630;2023-04-25T00:24:02;7.85;;;2.20;;
22871;SDS011;11603;44.910;8.630;2023-04-25T00:26:29;4.70;;;2.28;;
22871;SDS011;11603;44.910;8.630;2023-04-25T00:28:55;5.72;;;2.13;;
22871;SDS011;11603;44.910;8.630;2023-04-25T00:31:21;5.38;;;2.17;;
22871;SDS011;11603;44.910;8.630;2023-04-25T00:33:47;6.95;;;2.25;;
22871;SDS011;11603;44.910;8.630;2023-04-25T00:36:12;6.20;;;1.90;;
22871;SDS011;11603;44.910;8.630;2023-04-25T00:38:38;6.32;;;2.00;;
22871;SDS011;11603;44.910;8.630;2023-04-25T00:41:04;6.03;;;1.80;;
22871;SDS011;11603;44.910;8.630;2023-04-25T00:43:31;6.45;;;2.10;;
22871;SDS011;11603;44.910;8.630;2023-04-25T00:45:57;3.45;;;1.70;;
22871;SDS011;11603;44.910;8.630;2023-04-25T00:48:25;3.58;;;1.88;;
22871;SDS011;11603;44.910;8.630;2023-04-25T00:50:52;3.63;;;1.80;;
22871;SDS011;11603;44.910;8.630;2023-04-25T00:53:20;4.80;;;2.08;;
22871;SDS011;11603;44.910;8.630;2023-04-25T00:55:49;3.22;;;1.85;;
22871;SDS011;11603;44.910;8.630;2023-04-25T00:58:16;3.03;;;1.60;;
22871;SDS011;11603;44.910;8.630;2023-04-25T01:00:43;3.35;;;1.73;;
22871;SDS011;11603;44.910;8.630;2023-04-25T01:03:10;3.53;;;1.80;;
22871;SDS011;11603;44.910;8.630;2023-04-25T01:05:36;3.97;;;1.70;;
22871;SDS011;11603;44.910;8.630;2023-04-25T01:08:01;2.55;;;1.70;;
22871;SDS011;11603;44.910;8.630;2023-04-25T01:10:27;2.72;;;1.75;;
22871;SDS011;11603;44.910;8.630;2023-04-25T01:12:53;3.90;;;1.92;;
22871;SDS011;11603;44.910;8.630;2023-04-25T01:15:18;2.17;;;1.50;;
22871;SDS011;11603;44.910;8.630;2023-04-25T01:17:44;3.97;;;1.83;;
22871;SDS011;11603;44.910;8.630;2023-04-25T01:20:10;3.65;;;1.75;;
22871;SDS011;11603;44.910;8.630;2023-04-25T01:22:36;3.00;;;1.83;;
22871;SDS011;11603;44.910;8.630;2023-04-25T01:25:03;3.13;;;2.20;;
22871;SDS011;11603;44.910;8.630;2023-04-25T01:27:30;5.38;;;2.15;;
22871;SDS011;11603;44.910;8.630;2023-04-25T01:29:56;3.20;;;2.20;;
22871;SDS011;11603;44.910;8.630;2023-04-25T01:32:22;5.57;;;2.45;;
22871;SDS011;11603;44.910;8.630;2023-04-25T01:34:49;3.95;;;2.72;;
22871;SDS011;11603;44.910;8.630;2023-04-25T01:37:16;8.93;;;2.70;;
22871;SDS011;11603;44.910;8.630;2023-04-25T01:39:43;3.72;;;2.63;;
22871;SDS011;11603;44.910;8.630;2023-04-25T01:42:09;4.47;;;2.67;;
22871;SDS011;11603;44.910;8.630;2023-04-25T01:44:35;3.72;;;2.40;;
22871;SDS011;11603;44.910;8.630;2023-04-25T01:47:00;5.05;;;2.58;;
22871;SDS011;11603;44.910;8.630;2023-04-25T01:49:27;4.70;;;2.53;;
22871;SDS011;11603;44.910;8.630;2023-04-25T01:51:52;5.20;;;2.97;;
22871;SDS011;11603;44.910;8.630;2023-04-25T01:54:18;6.43;;;2.50;;
22871;SDS011;11603;44.910;8.630;2023-04-25T01:56:49;6.93;;;2.78;;
22871;SDS011;11603;44.910;8.630;2023-04-25T01:59:15;6.03;;;2.42;;
22871;SDS011;11603;44.910;8.630;2023-04-25T02:02:03;4.55;;;2.60;;
22871;SDS011;11603;44.910;8.630;2023-04-25T02:04:31;6.22;;;3.00;;
22871;SDS011;11603;44.910;8.630;2023-04-25T02:06:56;5.40;;;2.63;;
22871;SDS011;11603;44.910;8.630;2023-04-25T02:09:28;4.95;;;2.70;;
22871;SDS011;11603;44.910;8.630;2023-04-25T02:11:55;6.57;;;3.03;;
22871;SDS011;11603;44.910;8.630;2023-04-25T02:14:33;7.43;;;2.92;;
22871;SDS011;11603;44.910;8.630;2023-04-25T02:17:03;7.63;;;2.85;;
22871;SDS011;11603;44.910;8.630;2023-04-25T02:19:30;9.23;;;3.35;;
22871;SDS011;11603;44.910;8.630;2023-04-25T02:21:55;10.43;;;3.95;;
22871;SDS011;11603;44.910;8.630;2023-04-25T02:24:22;9.35;;;3.42;;
22871;SDS011;11603;44.910;8.630;2023-04-25T02:26:48;7.18;;;2.88;;
22871;SDS011;11603;44.910;8.630;2023-04-25T02:29:14;5.85;;;2.63;;
22871;SDS011;11603;44.910;8.630;2023-04-25T02:31:41;9.35;;;3.20;;
22871;SDS011;11603;44.910;8.630;2023-04-25T02:34:07;7.88;;;3.13;;
22871;SDS011;11603;44.910;8.630;2023-04-25T02:36:36;5.95;;;3.17;;
22871;SDS011;11603;44.910;8.630;2023-04-25T02:39:01;7.55;;;3.53;;
22871;SDS011;11603;44.910;8.630;2023-04-25T02:41:28;9.73;;;3.53;;
22871;SDS011;11603;44.910;8.630;2023-04-25T02:43:54;6.25;;;2.60;;
22871;SDS011;11603;44.910;8.630;2023-04-25T02:46:20;13.95;;;4.03;;
22871;SDS011;11603;44.910;8.630;2023-04-25T02:48:45;5.97;;;3.00;;
22871;SDS011;11603;44.910;8.630;2023-04-25T02:51:11;8.63;;;3.17;;
22871;SDS011;11603;44.910;8.630;2023-04-25T02:53:37;9.07;;;3.05;;
22871;SDS011;11603;44.910;8.630;2023-04-25T02:56:03;9.90;;;3.20;;
22871;SDS011;11603;44.910;8.630;2023-04-25T02:58:28;9.25;;;2.92;;
22871;SDS011;11603;44.910;8.630;2023-04-25T03:00:54;5.70;;;2.70;;
22871;SDS011;11603;44.910;8.630;2023-04-25T03:03:20;8.07;;;2.95;;
22871;SDS011;11603;44.910;8.630;2023-04-25T03:05:50;9.60;;;3.20;;
22871;SDS011;11603;44.910;8.630;2023-04-25T03:08:20;10.23;;;3.50;;
22871;SDS011;11603;44.910;8.630;2023-04-25T03:10:46;4.95;;;2.85;;
22871;SDS011;11603;44.910;8.630;2023-04-25T03:13:14;4.75;;;2.85;;
22871;SDS011;11603;44.910;8.630;2023-04-25T03:15:42;4.63;;;2.95;;
22871;SDS011;11603;44.910;8.630;2023-04-25T03:18:07;6.10;;;2.95;;
22871;SDS011;11603;44.910;8.630;2023-04-25T03:20:33;4.30;;;3.00;;
22871;SDS011;11603;44.910;8.630;2023-04-25T03:22:58;10.18;;;3.30;;
22871;SDS011;11603;44.910;8.630;2023-04-25T03:25:24;8.10;;;3.42;;
22871;SDS011;11603;44.910;8.630;2023-04-25T03:27:49;7.55;;;3.40;;
22871;SDS011;11603;44.910;8.630;2023-04-25T03:30:15;10.40;;;3.63;;
22871;SDS011;11603;44.910;8.630;2023-04-25T03:32:42;8.35;;;3.58;;
22871;SDS011;11603;44.910;8.630;2023-04-25T03:35:08;10.63;;;3.85;;
22871;SDS011;11603;44.910;8.630;2023-04-25T03:37:33;8.40;;;4.22;;
22871;SDS011;11603;44.910;8.630;2023-04-25T03:39:59;8.85;;;4.25;;
22871;SDS011;11603;44.910;8.630;2023-04-25T03:42:44;9.18;;;4.60;;
22871;SDS011;11603;44.910;8.630;2023-04-25T03:45:11;8.45;;;4.57;;
22871;SDS011;11603;44.910;8.630;2023-04-25T03:47:36;9.57;;;4.75;;
22871;SDS011;11603;44.910;8.630;2023-04-25T03:50:02;8.43;;;5.00;;
22871;SDS011;11603;44.910;8.630;2023-04-25T03:52:28;10.95;;;5.57;;
22871;SDS011;11603;44.910;8.630;2023-04-25T03:54:54;12.68;;;5.32;;
22871;SDS011;11603;44.910;8.630;2023-04-25T03:57:22;14.93;;;6.22;;
22871;SDS011;11603;44.910;8.630;2023-04-25T03:59:47;10.80;;;5.38;;
22871;SDS011;11603;44.910;8.630;2023-04-25T04:02:14;9.43;;;5.57;;
22871;SDS011;11603;44.910;8.630;2023-04-25T04:04:40;11.98;;;5.32;;
22871;SDS011;11603;44.910;8.630;2023-04-25T04:07:06;9.55;;;5.90;;
22871;SDS011;11603;44.910;8.630;2023-04-25T04:09:36;8.55;;;5.85;;
22871;SDS011;11603;44.910;8.630;2023-04-25T04:12:06;7.22;;;5.72;;
22871;SDS011;11603;44.910;8.630;2023-04-25T04:14:32;8.90;;;6.28;;
22871;SDS011;11603;44.910;8.630;2023-04-25T04:16:58;11.70;;;6.65;;
22871;SDS011;11603;44.910;8.630;2023-04-25T04:19:24;7.70;;;6.20;;
22871;SDS011;11603;44.910;8.630;2023-04-25T04:22:12;9.68;;;6.45;;
22871;SDS011;11603;44.910;8.630;2023-04-25T04:24:39;11.65;;;6.43;;
22871;SDS011;11603;44.910;8.630;2023-04-25T04:27:06;7.28;;;5.97;;
22871;SDS011;11603;44.910;8.630;2023-04-25T04:29:46;10.82;;;6.20;;
22871;SDS011;11603;44.910;8.630;2023-04-25T04:32:22;11.95;;;6.60;;
22871;SDS011;11603;44.910;8.630;2023-04-25T04:34:49;9.57;;;5.75;;
22871;SDS011;11603;44.910;8.630;2023-04-25T04:37:16;8.50;;;6.40;;
22871;SDS011;11603;44.910;8.630;2023-04-25T04:39:43;8.50;;;6.85;;
22871;SDS011;11603;44.910;8.630;2023-04-25T04:42:21;8.27;;;6.28;;
22871;SDS011;11603;44.910;8.630;2023-04-25T04:45:12;11.75;;;6.90;;
22871;SDS011;11603;44.910;8.630;2023-04-25T04:48:05;9.73;;;6.07;;
22871;SDS011;11603;44.910;8.630;2023-04-25T04:50:34;11.48;;;6.18;;
22871;SDS011;11603;44.910;8.630;2023-04-25T04:53:23;9.65;;;6.32;;
22871;SDS011;11603;44.910;8.630;2023-04-25T04:56:11;7.65;;;5.35;;
22871;SDS011;11603;44.910;8.630;2023-04-25T04:58:57;9.23;;;5.50;;
22871;SDS011;11603;44.910;8.630;2023-04-25T05:01:44;8.75;;;5.25;;
22871;SDS011;11603;44.910;8.630;2023-04-25T05:04:30;6.72;;;5.55;;
22871;SDS011;11603;44.910;8.630;2023-04-25T05:06:58;10.80;;;5.85;;
22871;SDS011;11603;44.910;8.630;2023-04-25T05:09:26;16.63;;;7.15;;
22871;SDS011;11603;44.910;8.630;2023-04-25T05:12:09;6.22;;;5.22;;
22871;SDS011;11603;44.910;8.630;2023-04-25T05:14:54;6.22;;;5.20;;
22871;SDS011;11603;44.910;8.630;2023-04-25T05:17:38;8.15;;;5.60;;
22871;SDS011;11603;44.910;8.630;2023-04-25T05:20:16;9.32;;;5.53;;
22871;SDS011;11603;44.910;8.630;2023-04-25T05:23:06;10.88;;;5.70;;
22871;SDS011;11603;44.910;8.630;2023-04-25T05:25:42;8.75;;;5.78;;
22871;SDS011;11603;44.910;8.630;2023-04-25T05:28:26;8.90;;;5.10;;
22871;SDS011;11603;44.910;8.630;2023-04-25T05:31:12;9.48;;;6.00;;
22871;SDS011;11603;44.910;8.630;2023-04-25T05:33:48;8.52;;;5.82;;
22871;SDS011;11603;44.910;8.630;2023-04-25T05:36:13;7.10;;;6.05;;
22871;SDS011;11603;44.910;8.630;2023-04-25T05:38:39;6.45;;;5.20;;
22871;SDS011;11603;44.910;8.630;2023-04-25T05:41:30;8.23;;;5.25;;
22871;SDS011;11603;44.910;8.630;2023-04-25T05:44:00;7.32;;;5.35;;
22871;SDS011;11603;44.910;8.630;2023-04-25T05:46:31;7.55;;;5.20;;
22871;SDS011;11603;44.910;8.630;2023-04-25T05:49:15;8.32;;;5.22;;
22871;SDS011;11603;44.910;8.630;2023-04-25T05:52:00;6.00;;;5.25;;
22871;SDS011;11603;44.910;8.630;2023-04-25T05:54:46;7.80;;;5.35;;
22871;SDS011;11603;44.910;8.630;2023-04-25T05:57:19;9.93;;;5.22;;
22871;SDS011;11603;44.910;8.630;2023-04-25T05:59:47;9.30;;;5.32;;
22871;SDS011;11603;44.910;8.630;2023-04-25T06:02:17;9.60;;;5.47;;
22871;SDS011;11603;44.910;8.630;2023-04-25T06:04:43;7.03;;;5.20;;
22871;SDS011;11603;44.910;8.630;2023-04-25T06:07:09;6.75;;;5.70;;
22871;SDS011;11603;44.910;8.630;2023-04-25T06:09:35;6.78;;;5.32;;
22871;SDS011;11603;44.910;8.630;2023-04-25T06:12:00;11.25;;;5.53;;
22871;SDS011;11603;44.910;8.630;2023-04-25T06:14:28;7.93;;;5.75;;
22871;SDS011;11603;44.910;8.630;2023-04-25T06:16:54;7.32;;;5.47;;
22871;SDS011;11603;44.910;8.630;2023-04-25T06:19:19;9.68;;;5.72;;
22871;SDS011;11603;44.910;8.630;2023-04-25T06:21:45;6.30;;;5.47;;
22871;SDS011;11603;44.910;8.630;2023-04-25T06:24:10;9.20;;;5.80;;
22871;SDS011;11603;44.910;8.630;2023-04-25T06:26:36;7.75;;;5.53;;
22871;SDS011;11603;44.910;8.630;2023-04-25T06:29:02;10.75;;;5.43;;
22871;SDS011;11603;44.910;8.630;2023-04-25T06:31:28;6.88;;;5.32;;
22871;SDS011;11603;44.910;8.630;2023-04-25T06:34:00;6.75;;;5.90;;
22871;SDS011;11603;44.910;8.630;2023-04-25T06:36:28;10.55;;;5.95;;
22871;SDS011;11603;44.910;8.630;2023-04-25T06:38:59;10.52;;;6.45;;
22871;SDS011;11603;44.910;8.630;2023-04-25T06:41:25;6.82;;;5.78;;
22871;SDS011;11603;44.910;8.630;2023-04-25T06:43:51;7.82;;;6.15;;
22871;SDS011;11603;44.910;8.630;2023-04-25T06:46:28;6.53;;;5.78;;
22871;SDS011;11603;44.910;8.630;2023-04-25T06:48:57;6.35;;;5.75;;
22871;SDS011;11603;44.910;8.630;2023-04-25T06:51:22;9.25;;;5.80;;
22871;SDS011;11603;44.910;8.630;2023-04-25T06:53:51;8.43;;;6.20;;
22871;SDS011;11603;44.910;8.630;2023-04-25T06:56:25;6.70;;;5.85;;
22871;SDS011;11603;44.910;8.630;2023-04-25T06:59:12;10.45;;;5.88;;
22871;SDS011;11603;44.910;8.630;2023-04-25T07:01:39;6.05;;;5.22;;
22871;SDS011;11603;44.910;8.630;2023-04-25T07:04:10;10.65;;;5.90;;
22871;SDS011;11603;44.910;8.630;2023-04-25T07:06:41;6.00;;;5.40;;
22871;SDS011;11603;44.910;8.630;2023-04-25T07:09:10;7.20;;;5.55;;
22871;SDS011;11603;44.910;8.630;2023-04-25T07:11:37;6.88;;;5.70;;
22871;SDS011;11603;44.910;8.630;2023-04-25T07:14:03;7.68;;;5.57;;
22871;SDS011;11603;44.910;8.630;2023-04-25T07:16:28;7.50;;;5.65;;
22871;SDS011;11603;44.910;8.630;2023-04-25T07:18:54;8.82;;;5.68;;
22871;SDS011;11603;44.910;8.630;2023-04-25T07:21:20;6.75;;;4.90;;
22871;SDS011;11603;44.910;8.630;2023-04-25T07:23:49;7.18;;;5.25;;
22871;SDS011;11603;44.910;8.630;2023-04-25T07:26:18;7.32;;;5.10;;
22871;SDS011;11603;44.910;8.630;2023-04-25T07:29:06;7.28;;;5.22;;
22871;SDS011;11603;44.910;8.630;2023-04-25T07:31:32;6.57;;;5.25;;
22871;SDS011;11603;44.910;8.630;2023-04-25T07:33:58;6.18;;;5.18;;
22871;SDS011;11603;44.910;8.630;2023-04-25T07:36:23;6.60;;;5.57;;
22871;SDS011;11603;44.910;8.630;2023-04-25T07:38:49;8.55;;;5.70;;
22871;SDS011;11603;44.910;8.630;2023-04-25T07:41:15;7.43;;;5.82;;
22871;SDS011;11603;44.910;8.630;2023-04-25T07:43:40;8.55;;;5.50;;
22871;SDS011;11603;44.910;8.630;2023-04-25T07:46:07;7.47;;;5.63;;
22871;SDS011;11603;44.910;8.630;2023-04-25T07:48:34;9.25;;;6.05;;
22871;SDS011;11603;44.910;8.630;2023-04-25T07:51:01;7.10;;;5.75;;
22871;SDS011;11603;44.910;8.630;2023-04-25T07:53:27;6.97;;;5.95;;
22871;SDS011;11603;44.910;8.630;2023-04-25T07:55:59;8.10;;;6.00;;
22871;SDS011;11603;44.910;8.630;2023-04-25T07:58:29;6.32;;;5.50;;
22871;SDS011;11603;44.910;8.630;2023-04-25T08:00:59;6.88;;;5.80;;
22871;SDS011;11603;44.910;8.630;2023-04-25T08:03:33;12.20;;;5.80;;
22871;SDS011;11603;44.910;8.630;2023-04-25T08:06:01;7.70;;;5.53;;
22871;SDS011;11603;44.910;8.630;2023-04-25T08:08:30;8.45;;;6.47;;
22871;SDS011;11603;44.910;8.630;2023-04-25T08:10:56;7.50;;;6.30;;
22871;SDS011;11603;44.910;8.630;2023-04-25T08:13:21;11.70;;;6.75;;
22871;SDS011;11603;44.910;8.630;2023-04-25T08:15:47;9.90;;;6.57;;
22871;SDS011;11603;44.910;8.630;2023-04-25T08:18:12;7.82;;;6.05;;
22871;SDS011;11603;44.910;8.630;2023-04-25T08:20:38;9.23;;;6.63;;
22871;SDS011;11603;44.910;8.630;2023-04-25T08:23:06;8.30;;;6.25;;
22871;SDS011;11603;44.910;8.630;2023-04-25T08:25:45;7.70;;;6.15;;
22871;SDS011;11603;44.910;8.630;2023-04-25T08:28:12;12.05;;;7.00;;
22871;SDS011;11603;44.910;8.630;2023-04-25T08:30:38;8.18;;;5.95;;
22871;SDS011;11603;44.910;8.630;2023-04-25T08:33:06;8.13;;;6.22;;
22871;SDS011;11603;44.910;8.630;2023-04-25T08:35:49;7.95;;;6.22;;
22871;SDS011;11603;44.910;8.630;2023-04-25T08:38:15;6.93;;;5.60;;
22871;SDS011;11603;44.910;8.630;2023-04-25T08:40:41;6.78;;;6.03;;
22871;SDS011;11603;44.910;8.630;2023-04-25T08:43:14;7.63;;;6.03;;
22871;SDS011;11603;44.910;8.630;2023-04-25T08:45:40;7.40;;;5.85;;
22871;SDS011;11603;44.910;8.630;2023-04-25T08:48:13;6.50;;;5.43;;
22871;SDS011;11603;44.910;8.630;2023-04-25T08:53:09;8.05;;;5.32;;
22871;SDS011;11603;44.910;8.630;2023-04-25T08:55:41;9.13;;;5.40;;
22871;SDS011;11603;44.910;8.630;2023-04-25T08:58:09;8.00;;;5.50;;
22871;SDS011;11603;44.910;8.630;2023-04-25T09:00:36;7.38;;;5.43;;
22871;SDS011;11603;44.910;8.630;2023-04-25T09:03:02;6.20;;;5.05;;
22871;SDS011;11603;44.910;8.630;2023-04-25T09:05:34;5.72;;;5.07;;
22871;SDS011;11603;44.910;8.630;2023-04-25T09:08:01;8.40;;;5.38;;
22871;SDS011;11603;44.910;8.630;2023-04-25T09:10:27;7.28;;;5.90;;
22871;SDS011;11603;44.910;8.630;2023-04-25T09:13:02;8.38;;;4.60;;
22871;SDS011;11603;44.910;8.630;2023-04-25T09:15:29;9.02;;;4.80;;
22871;SDS011;11603;44.910;8.630;2023-04-25T09:18:21;5.07;;;4.50;;
22871;SDS011;11603;44.910;8.630;2023-04-25T09:20:55;7.10;;;4.28;;
22871;SDS011;11603;44.910;8.630;2023-04-25T09:26:07;8.25;;;4.05;;
22871;SDS011;11603;44.910;8.630;2023-04-25T09:28:38;5.18;;;4.68;;
22871;SDS011;11603;44.910;8.630;2023-04-25T09:31:04;5.53;;;4.57;;
22871;SDS011;11603;44.910;8.630;2023-04-25T09:33:41;5.47;;;4.40;;
22871;SDS011;11603;44.910;8.630;2023-04-25T09:36:07;7.30;;;5.00;;
22871;SDS011;11603;44.910;8.630;2023-04-25T09:38:57;8.57;;;4.63;;
22871;SDS011;11603;44.910;8.630;2023-04-25T09:41:30;4.63;;;3.92;;
22871;SDS011;11603;44.910;8.630;2023-04-25T09:58:37;7.85;;;4.60;;
22871;SDS011;11603;44.910;8.630;2023-04-25T10:01:09;5.07;;;4.40;;
22871;SDS011;11603;44.910;8.630;2023-04-25T10:03:46;6.90;;;4.80;;
22871;SDS011;11603;44.910;8.630;2023-04-25T10:06:31;8.50;;;4.60;;
22871;SDS011;11603;44.910;8.630;2023-04-25T10:09:00;4.82;;;4.20;;
22871;SDS011;11603;44.910;8.630;2023-04-25T10:11:26;7.30;;;4.80;;
22871;SDS011;11603;44.910;8.630;2023-04-25T10:13:53;4.93;;;4.15;;
22871;SDS011;11603;44.910;8.630;2023-04-25T10:16:18;6.95;;;4.68;;
22871;SDS011;11603;44.910;8.630;2023-04-25T10:18:45;5.65;;;4.40;;
22871;SDS011;11603;44.910;8.630;2023-04-25T10:21:10;8.90;;;4.80;;
22871;SDS011;11603;44.910;8.630;2023-04-25T10:23:37;11.02;;;4.40;;
22871;SDS011;11603;44.910;8.630;2023-04-25T10:26:04;6.35;;;4.88;;
22871;SDS011;11603;44.910;8.630;2023-04-25T10:28:33;4.70;;;4.20;;
22871;SDS011;11603;44.910;8.630;2023-04-25T10:31:24;6.90;;;4.90;;
22871;SDS011;11603;44.910;8.630;2023-04-25T10:33:50;7.85;;;4.43;;
22871;SDS011;11603;44.910;8.630;2023-04-25T10:36:20;8.10;;;4.65;;
22871;SDS011;11603;44.910;8.630;2023-04-25T10:38:48;5.70;;;4.47;;
22871;SDS011;11603;44.910;8.630;2023-04-25T10:41:17;7.25;;;4.25;;
22871;SDS011;11603;44.910;8.630;2023-04-25T10:43:43;5.07;;;3.95;;
22871;SDS011;11603;44.910;8.630;2023-04-25T10:46:14;5.50;;;4.07;;
22871;SDS011;11603;44.910;8.630;2023-04-25T10:51:39;5.88;;;4.72;;
22871;SDS011;11603;44.910;8.630;2023-04-25T10:54:07;5.20;;;4.30;;
22871;SDS011;11603;44.910;8.630;2023-04-25T10:56:37;5.32;;;4.10;;
22871;SDS011;11603;44.910;8.630;2023-04-25T10:59:14;8.15;;;4.47;;
22871;SDS011;11603;44.910;8.630;2023-04-25T11:01:42;5.78;;;3.38;;
22871;SDS011;11603;44.910;8.630;2023-04-25T11:04:24;9.10;;;4.20;;
22871;SDS011;11603;44.910;8.630;2023-04-25T11:09:25;4.43;;;3.58;;
22871;SDS011;11603;44.910;8.630;2023-04-25T11:11:54;6.72;;;4.10;;
22871;SDS011;11603;44.910;8.630;2023-04-25T11:14:21;5.63;;;3.92;;
22871;SDS011;11603;44.910;8.630;2023-04-25T11:16:47;5.55;;;3.40;;
22871;SDS011;11603;44.910;8.630;2023-04-25T11:19:13;6.13;;;3.90;;
22871;SDS011;11603;44.910;8.630;2023-04-25T11:21:38;4.22;;;3.60;;
22871;SDS011;11603;44.910;8.630;2023-04-25T11:24:04;6.82;;;3.90;;
22871;SDS011;11603;44.910;8.630;2023-04-25T11:26:30;4.78;;;3.80;;
22871;SDS011;11603;44.910;8.630;2023-04-25T11:28:59;5.43;;;3.38;;
22871;SDS011;11603;44.910;8.630;2023-04-25T11:31:28;6.32;;;3.40;;
22871;SDS011;11603;44.910;8.630;2023-04-25T11:33:57;3.90;;;3.33;;
22871;SDS011;11603;44.910;8.630;2023-04-25T11:36:34;4.72;;;3.20;;
22871;SDS011;11603;44.910;8.630;2023-04-25T11:39:03;6.85;;;2.90;;
22871;SDS011;11603;44.910;8.630;2023-04-25T11:41:29;6.07;;;3.10;;
22871;SDS011;11603;44.910;8.630;2023-04-25T11:43:55;4.13;;;3.10;;
22871;SDS011;11603;44.910;8.630;2023-04-25T11:46:21;3.22;;;2.92;;
22871;SDS011;11603;44.910;8.630;2023-04-25T11:48:46;4.05;;;2.28;;
22871;SDS011;11603;44.910;8.630;2023-04-25T11:51:12;3.08;;;2.30;;
22871;SDS011;11603;44.910;8.630;2023-04-25T11:53:40;2.53;;;2.10;;
22871;SDS011;11603;44.910;8.630;2023-04-25T11:56:10;4.20;;;1.90;;
22871;SDS011;11603;44.910;8.630;2023-04-25T12:01:36;5.10;;;2.00;;
22871;SDS011;11603;44.910;8.630;2023-04-25T12:04:20;3.33;;;1.77;;
22871;SDS011;11603;44.910;8.630;2023-04-25T12:06:52;6.28;;;2.33;;
22871;SDS011;11603;44.910;8.630;2023-04-25T12:09:20;3.95;;;2.30;;
22871;SDS011;11603;44.910;8.630;2023-04-25T12:11:55;3.28;;;2.47;;
22871;SDS011;11603;44.910;8.630;2023-04-25T12:14:26;4.90;;;2.20;;
22871;SDS011;11603;44.910;8.630;2023-04-25T12:16:55;2.58;;;2.10;;
22871;SDS011;11603;44.910;8.630;2023-04-25T12:19:23;3.75;;;2.53;;
22871;SDS011;11603;44.910;8.630;2023-04-25T12:21:49;2.83;;;2.10;;
22871;SDS011;11603;44.910;8.630;2023-04-25T12:24:22;3.72;;;1.90;;
22871;SDS011;11603;44.910;8.630;2023-04-25T12:26:52;2.58;;;2.13;;
22871;SDS011;11603;44.910;8.630;2023-04-25T12:29:18;4.97;;;2.40;;
22871;SDS011;11603;44.910;8.630;2023-04-25T12:31:45;4.68;;;1.80;;
22871;SDS011;11603;44.910;8.630;2023-04-25T12:34:11;2.63;;;1.95;;
22871;SDS011;11603;44.910;8.630;2023-04-25T12:36:37;2.40;;;1.77;;
22871;SDS011;11603;44.910;8.630;2023-04-25T12:39:02;3.80;;;2.20;;
22871;SDS011;11603;44.910;8.630;2023-04-25T12:41:29;4.57;;;1.88;;
22871;SDS011;11603;44.910;8.630;2023-04-25T12:43:55;3.38;;;1.88;;
22871;SDS011;11603;44.910;8.630;2023-04-25T12:46:20;3.58;;;2.15;;
22871;SDS011;11603;44.910;8.630;2023-04-25T12:48:47;3.03;;;2.25;;
22871;SDS011;11603;44.910;8.630;2023-04-25T12:51:13;2.50;;;2.30;;
22871;SDS011;11603;44.910;8.630;2023-04-25T12:53:38;2.92;;;1.90;;
22871;SDS011;11603;44.910;8.630;2023-04-25T12:56:06;11.55;;;2.40;;
22871;SDS011;11603;44.910;8.630;2023-04-25T12:58:35;4.68;;;2.72;;
22871;SDS011;11603;44.910;8.630;2023-04-25T13:01:00;3.28;;;2.28;;
22871;SDS011;11603;44.910;8.630;2023-04-25T13:03:26;10.63;;;5.38;;
22871;SDS011;11603;44.910;8.630;2023-04-25T13:05:51;5.60;;;5.07;;
22871;SDS011;11603;44.910;8.630;2023-04-25T13:08:20;7.90;;;5.22;;
22871;SDS011;11603;44.910;8.630;2023-04-25T13:10:47;6.45;;;5.43;;
22871;SDS011;11603;44.910;8.630;2023-04-25T13:13:13;7.30;;;5.63;;
22871;SDS011;11603;44.910;8.630;2023-04-25T13:15:38;5.60;;;4.63;;
22871;SDS011;11603;44.910;8.630;2023-04-25T13:18:04;10.57;;;5.13;;
22871;SDS011;11603;44.910;8.630;2023-04-25T13:20:30;8.25;;;5.32;;
22871;SDS011;11603;44.910;8.630;2023-04-25T13:22:56;7.15;;;4.90;;
22871;SDS011;11603;44.910;8.630;2023-04-25T13:25:22;7.93;;;5.55;;
22871;SDS011;11603;44.910;8.630;2023-04-25T13:27:48;6.38;;;4.93;;
22871;SDS011;11603;44.910;8.630;2023-04-25T13:30:13;5.28;;;4.75;;
22871;SDS011;11603;44.910;8.630;2023-04-25T13:32:39;8.18;;;5.20;;
22871;SDS011;11603;44.910;8.630;2023-04-25T13:35:06;6.95;;;4.80;;
22871;SDS011;11603;44.910;8.630;2023-04-25T13:37:33;6.18;;;4.75;;
22871;SDS011;11603;44.910;8.630;2023-04-25T13:40:00;7.47;;;4.70;;
22871;SDS011;11603;44.910;8.630;2023-04-25T13:42:27;6.38;;;4.95;;
22871;SDS011;11603;44.910;8.630;2023-04-25T13:44:53;6.75;;;4.00;;
22871;SDS011;11603;44.910;8.630;2023-04-25T13:47:19;6.72;;;3.95;;
22871;SDS011;11603;44.910;8.630;2023-04-25T13:49:44;8.52;;;3.85;;
22871;SDS011;11603;44.910;8.630;2023-04-25T13:52:10;4.22;;;3.80;;
22871;SDS011;11603;44.910;8.630;2023-04-25T13:54:35;6.05;;;3.83;;
22871;SDS011;11603;44.910;8.630;2023-04-25T13:57:01;5.97;;;3.80;;
22871;SDS011;11603;44.910;8.630;2023-04-25T13:59:30;4.25;;;3.65;;
22871;SDS011;11603;44.910;8.630;2023-04-25T14:01:56;5.43;;;3.90;;
22871;SDS011;11603;44.910;8.630;2023-04-25T14:04:21;8.73;;;3.88;;
22871;SDS011;11603;44.910;8.630;2023-04-25T14:06:47;3.90;;;3.42;;
22871;SDS011;11603;44.910;8.630;2023-04-25T14:09:12;4.15;;;3.50;;
22871;SDS011;11603;44.910;8.630;2023-04-25T14:11:38;6.63;;;3.47;;
22871;SDS011;11603;44.910;8.630;2023-04-25T14:14:04;5.57;;;3.90;;
22871;SDS011;11603;44.910;8.630;2023-04-25T14:16:30;8.13;;;3.83;;
22871;SDS011;11603;44.910;8.630;2023-04-25T14:18:57;7.18;;;4.05;;
22871;SDS011;11603;44.910;8.630;2023-04-25T14:21:23;3.65;;;3.10;;
22871;SDS011;11603;44.910;8.630;2023-04-25T14:23:49;5.85;;;3.00;;
22871;SDS011;11603;44.910;8.630;2023-04-25T14:26:15;4.20;;;3.00;;
22871;SDS011;11603;44.910;8.630;2023-04-25T14:28:41;3.95;;;2.45;;
22871;SDS011;11603;44.910;8.630;2023-04-25T14:31:07;5.70;;;2.33;;
22871;SDS011;11603;44.910;8.630;2023-04-25T14:33:32;2.72;;;2.40;;
22871;SDS011;11603;44.910;8.630;2023-04-25T14:35:58;5.03;;;2.30;;
22871;SDS011;11603;44.910;8.630;2023-04-25T14:38:23;3.03;;;2.28;;
22871;SDS011;11603;44.910;8.630;2023-04-25T14:40:50;4.68;;;2.42;;
22871;SDS011;11603;44.910;8.630;2023-04-25T14:43:16;3.53;;;2.60;;
22871;SDS011;11603;44.910;8.630;2023-04-25T14:45:42;4.40;;;2.38;;
22871;SDS011;11603;44.910;8.630;2023-04-25T14:48:08;4.75;;;2.20;;
22871;SDS011;11603;44.910;8.630;2023-04-25T14:50:33;4.75;;;2.08;;
22871;SDS011;11603;44.910;8.630;2023-04-25T14:52:59;3.25;;;2.10;;
22871;SDS011;11603;44.910;8.630;2023-04-25T14:55:28;4.10;;;2.20;;
22871;SDS011;11603;44.910;8.630;2023-04-25T14:57:54;2.42;;;2.17;;
22871;SDS011;11603;44.910;8.630;2023-04-25T15:00:20;4.30;;;2.00;;
22871;SDS011;11603;44.910;8.630;2023-04-25T15:02:47;2.63;;;1.95;;
22871;SDS011;11603;44.910;8.630;2023-04-25T15:05:16;1.80;;;1.70;;
22871;SDS011;11603;44.910;8.630;2023-04-25T15:07:42;4.47;;;1.80;;
22871;SDS011;11603;44.910;8.630;2023-04-25T15:10:07;2.90;;;1.73;;
22871;SDS011;11603;44.910;8.630;2023-04-25T15:12:38;4.70;;;1.83;;
22871;SDS011;11603;44.910;8.630;2023-04-25T15:15:06;3.00;;;2.00;;
22871;SDS011;11603;44.910;8.630;2023-04-25T15:17:37;2.75;;;1.90;;
22871;SDS011;11603;44.910;8.630;2023-04-25T15:20:04;4.32;;;1.67;;
22871;SDS011;11603;44.910;8.630;2023-04-25T15:22:31;3.92;;;1.48;;
22871;SDS011;11603;44.910;8.630;2023-04-25T15:24:56;4.00;;;1.20;;